Atascosa, Texas
Current Conditions -  °F | °C
As of 2:35 PM on Friday 31 Oct 2014 (Local Time) from KCVB Reporting Station
Clear Clear  
Wind Chill: 77°   Ceiling: Unl
Heat Index: 77°   Visibility: 10mi
Dew Point: 36°   Wind: 12mph
Humidity: 22%   Direction: 40°NE
Pressure: 30.25"   Gusts: 17mph
Location:  29.28°N, 98.74°W
Report Text: KCVB 311935Z AUTO 04010G15KT 10SM CLR 25/02 A3025 RMK AO2 T02490020
Loading
Personal Weather Stations






























Interactive Weather Map
Tropical Storm Tracking
New forecast layout! Learn more

10-Day Weather Forecast

Advertisements
Track Severe Weather on mobile